createdAt,value
2017-03-03T00:00:35.597Z,49.55
2017-03-03T00:01:16.339Z,49.65
2017-03-03T00:01:56.981Z,49.55
2017-03-03T00:02:37.623Z,49.46
2017-03-03T00:03:18.270Z,49.55
2017-03-03T00:03:58.916Z,49.46
2017-03-03T00:04:39.562Z,49.65
2017-03-03T00:05:20.225Z,49.65
2017-03-03T00:06:00.865Z,49.55
2017-03-03T00:06:41.493Z,49.55
2017-03-03T00:07:22.180Z,49.65
2017-03-03T00:08:02.811Z,49.65
2017-03-03T00:08:43.449Z,49.27
2017-03-03T00:09:24.174Z,49.36
2017-03-03T00:10:04.854Z,49.27
2017-03-03T00:10:45.509Z,49.46
2017-03-03T00:11:26.149Z,49.65
2017-03-03T00:12:06.846Z,49.65
2017-03-03T00:12:47.485Z,49.65
2017-03-03T00:13:28.186Z,49.74
2017-03-03T00:14:08.888Z,49.74
2017-03-03T00:14:49.515Z,49.46
2017-03-03T00:15:30.232Z,49.36
2017-03-03T00:16:10.882Z,49.27
2017-03-03T00:16:51.547Z,49.17
2017-03-03T00:17:32.184Z,49.46
2017-03-03T00:18:12.824Z,49.36
2017-03-03T00:18:53.481Z,49.55
2017-03-03T00:19:34.167Z,49.27
2017-03-03T00:20:14.822Z,49.27
2017-03-03T00:20:55.551Z,49.65
2017-03-03T00:21:36.178Z,49.17
2017-03-03T00:22:16.859Z,49.27
2017-03-03T00:22:57.528Z,49.46
2017-03-03T00:23:38.168Z,49.36
2017-03-03T00:24:18.888Z,49.46
2017-03-03T00:25:00.389Z,49.36
2017-03-03T00:25:41.017Z,49.46
2017-03-03T00:26:21.654Z,49.55
2017-03-03T00:27:02.362Z,49.46
2017-03-03T00:27:43.008Z,49.55
2017-03-03T00:28:24.567Z,49.55
2017-03-03T00:29:05.216Z,49.46
2017-03-03T00:29:45.846Z,49.46
2017-03-03T00:30:26.480Z,49.36
2017-03-03T00:31:07.240Z,49.36
2017-03-03T00:31:47.884Z,49.43
2017-03-03T00:32:28.514Z,49.46
2017-03-03T00:33:09.164Z,49.46
2017-03-03T00:33:49.798Z,49.65
2017-03-03T00:34:30.446Z,49.65
2017-03-03T00:35:11.073Z,49.46
2017-03-03T00:35:51.711Z,49.46
2017-03-03T00:36:32.368Z,49.55
2017-03-03T00:37:13.023Z,49.27
2017-03-03T00:37:53.651Z,49.55
2017-03-03T00:38:34.290Z,49.17
2017-03-03T00:39:14.935Z,49.46
2017-03-03T00:39:55.575Z,49.27
2017-03-03T00:40:36.235Z,49.46
2017-03-03T00:41:16.981Z,49.65
2017-03-03T00:41:57.628Z,49.46
2017-03-03T00:42:38.307Z,49.55
2017-03-03T00:43:19.005Z,49.46
2017-03-03T00:43:59.728Z,49.46
2017-03-03T00:44:40.366Z,49.55
2017-03-03T00:45:21.004Z,49.46
2017-03-03T00:46:01.697Z,49.74
2017-03-03T00:46:42.331Z,49.36
2017-03-03T00:47:22.962Z,49.27
2017-03-03T00:48:03.653Z,49.27
2017-03-03T00:48:44.354Z,49.65
2017-03-03T00:49:24.925Z,49.74
2017-03-03T00:50:05.568Z,49.36
2017-03-03T00:50:46.201Z,49.65
2017-03-03T00:51:26.825Z,49.74
2017-03-03T00:52:07.505Z,49.55
2017-03-03T00:52:48.167Z,49.46
2017-03-03T00:53:28.794Z,49.74
2017-03-03T00:54:09.473Z,49.55
2017-03-03T00:54:50.138Z,49.65
2017-03-03T00:55:30.795Z,49.55
2017-03-03T00:56:11.461Z,49.55
2017-03-03T00:56:52.167Z,49.65
2017-03-03T00:57:32.793Z,49.65
2017-03-03T00:58:13.429Z,49.74
2017-03-03T00:58:54.105Z,49.74
2017-03-03T00:59:34.737Z,49.65
2017-03-03T01:00:15.433Z,50.04
2017-03-03T01:00:56.130Z,49.84
2017-03-03T01:01:36.768Z,49.55
2017-03-03T01:02:17.471Z,49.46
2017-03-03T01:02:58.116Z,49.84
2017-03-03T01:03:38.798Z,49.46
2017-03-03T01:04:19.389Z,49.84
2017-03-03T01:05:00.119Z,49.74
2017-03-03T01:05:40.747Z,49.55
2017-03-03T01:06:21.392Z,49.65
2017-03-03T01:07:02.113Z,49.65
2017-03-03T01:07:42.824Z,49.65
2017-03-03T01:08:23.474Z,49.74
2017-03-03T01:09:04.181Z,49.55
2017-03-03T01:09:44.818Z,49.27
2017-03-03T01:10:25.474Z,49.46
2017-03-03T01:11:06.128Z,49.55
2017-03-03T01:11:46.826Z,49.65
2017-03-03T01:12:27.563Z,50.23
2017-03-03T01:13:08.220Z,49.94
2017-03-03T01:13:48.896Z,50.04
2017-03-03T01:14:29.641Z,50.04
2017-03-03T01:15:10.274Z,49.84
2017-03-03T01:15:50.904Z,49.74
2017-03-03T01:16:31.655Z,49.84
2017-03-03T01:17:12.305Z,50.04
2017-03-03T01:17:52.964Z,49.82
2017-03-03T01:18:33.677Z,49.94
2017-03-03T01:19:14.350Z,49.84
2017-03-03T01:19:54.983Z,49.94
2017-03-03T01:20:35.643Z,49.84
2017-03-03T01:21:16.269Z,49.74
2017-03-03T01:21:56.911Z,50.04
2017-03-03T01:22:37.631Z,50.59
2017-03-03T01:23:18.255Z,50.13
2017-03-03T01:23:58.891Z,49.94
2017-03-03T01:24:39.593Z,49.74
2017-03-03T01:25:20.293Z,50.04
2017-03-03T01:26:00.952Z,49.94
2017-03-03T01:26:41.605Z,50.04
2017-03-03T01:27:22.236Z,49.94
2017-03-03T01:28:02.956Z,49.94
2017-03-03T01:28:43.602Z,50.04
2017-03-03T01:29:24.247Z,50.04
2017-03-03T01:30:04.887Z,49.84
2017-03-03T01:30:45.519Z,49.94
2017-03-03T01:31:26.181Z,49.94
2017-03-03T01:32:06.853Z,50.01
2017-03-03T01:32:47.504Z,50.81
2017-03-03T01:33:28.187Z,50.71
2017-03-03T01:34:08.834Z,50.81
2017-03-03T01:34:49.486Z,50.13
2017-03-03T01:35:30.172Z,50.71
2017-03-03T01:36:10.882Z,50.13
2017-03-03T01:36:51.637Z,49.84
2017-03-03T01:37:32.312Z,50.2
2017-03-03T01:38:12.950Z,50.23
2017-03-03T01:38:53.581Z,50.04
2017-03-03T01:39:34.210Z,50.23
2017-03-03T01:40:14.907Z,50.68
2017-03-03T01:40:55.578Z,50.23
2017-03-03T01:41:36.213Z,50.61
2017-03-03T01:42:16.911Z,50.61
2017-03-03T01:42:57.608Z,50.32
2017-03-03T01:43:38.247Z,50.3
2017-03-03T01:44:18.882Z,50.42
2017-03-03T01:44:59.536Z,50.61
2017-03-03T01:45:40.247Z,50.51
2017-03-03T01:46:20.799Z,50.4
2017-03-03T01:47:01.457Z,50.4
2017-03-03T01:47:42.087Z,50.4
2017-03-03T01:48:22.713Z,50.3
2017-03-03T01:49:03.342Z,50.51
2017-03-03T01:49:43.965Z,50.71
2017-03-03T01:50:24.644Z,50.2
2017-03-03T01:51:05.269Z,50.81
2017-03-03T01:51:45.894Z,50.13
2017-03-03T01:52:26.561Z,50.71
2017-03-03T01:53:07.232Z,50.61
2017-03-03T01:53:47.923Z,50.32
2017-03-03T01:54:28.519Z,50.81
2017-03-03T01:55:09.204Z,50.2
2017-03-03T01:55:49.933Z,50.61
2017-03-03T01:56:30.582Z,50.71
2017-03-03T01:57:11.299Z,50.42
2017-03-03T01:57:51.930Z,50.42
2017-03-03T01:58:32.570Z,50.51
2017-03-03T01:59:13.212Z,50.42
2017-03-03T01:59:53.845Z,50.51
2017-03-03T02:00:34.475Z,50.42
2017-03-03T02:01:15.207Z,50.51
2017-03-03T02:01:55.871Z,50.42
2017-03-03T02:02:36.495Z,50.42
2017-03-03T02:03:17.123Z,50.51
2017-03-03T02:03:57.834Z,50.42
2017-03-03T02:04:38.483Z,50.49
2017-03-03T02:05:19.124Z,50.59
2017-03-03T02:05:59.786Z,50.4
2017-03-03T02:06:40.527Z,50.23
2017-03-03T02:07:21.184Z,50.51
2017-03-03T02:08:01.817Z,50.32
2017-03-03T02:08:42.561Z,50.42
2017-03-03T02:09:23.190Z,50.51
2017-03-03T02:10:03.838Z,50.32
2017-03-03T02:10:44.475Z,50.32
2017-03-03T02:11:25.112Z,50.49
2017-03-03T02:12:05.764Z,50.49
2017-03-03T02:12:46.402Z,50.51
2017-03-03T02:13:27.038Z,50.23
2017-03-03T02:14:07.699Z,50.23
2017-03-03T02:14:48.326Z,50.61
2017-03-03T02:15:28.964Z,50.51
2017-03-03T02:16:09.626Z,50.32
2017-03-03T02:16:50.351Z,50.81
2017-03-03T02:17:30.977Z,50.32
2017-03-03T02:18:11.607Z,50.2
2017-03-03T02:18:52.236Z,50.4
2017-03-03T02:19:32.982Z,50.3
2017-03-03T02:20:13.502Z,50.4
2017-03-03T02:20:54.203Z,50.2
2017-03-03T02:21:34.946Z,50.4
2017-03-03T02:22:15.597Z,50.4
2017-03-03T02:22:56.261Z,50.4
2017-03-03T02:23:36.996Z,50.4
2017-03-03T02:24:17.627Z,50.59
2017-03-03T02:24:58.281Z,50.59
2017-03-03T02:25:38.959Z,50.49
2017-03-03T02:26:19.590Z,50.4
2017-03-03T02:27:00.256Z,50.23
2017-03-03T02:27:40.923Z,50.4
2017-03-03T02:28:21.613Z,50.42
2017-03-03T02:29:02.191Z,50.23
2017-03-03T02:29:42.829Z,50.32
2017-03-03T02:30:23.571Z,50.42
2017-03-03T02:31:04.098Z,50.4
2017-03-03T02:31:44.778Z,50.3
2017-03-03T02:32:25.401Z,50.49
2017-03-03T02:33:06.039Z,50.49
2017-03-03T02:33:46.658Z,50.49
2017-03-03T02:34:27.290Z,50.4
2017-03-03T02:35:07.924Z,50.4
2017-03-03T02:35:48.578Z,50.51
2017-03-03T02:36:29.215Z,50.4
2017-03-03T02:37:09.861Z,50.49
2017-03-03T02:37:50.564Z,50.3
2017-03-03T02:38:31.214Z,50.49
2017-03-03T02:39:11.867Z,50.01
2017-03-03T02:39:52.518Z,50.3
2017-03-03T02:40:33.154Z,50.4
2017-03-03T02:41:13.776Z,50.59
2017-03-03T02:41:54.441Z,50.4
2017-03-03T02:42:35.130Z,50.4
2017-03-03T02:43:15.766Z,50.3
2017-03-03T02:43:56.387Z,50.3
2017-03-03T02:44:37.050Z,50.3
2017-03-03T02:45:17.664Z,50.3
2017-03-03T02:45:58.440Z,50.49
2017-03-03T02:46:39.098Z,50.59
2017-03-03T02:47:19.725Z,50.3
2017-03-03T02:48:00.355Z,50.49
2017-03-03T02:48:40.988Z,50.3
2017-03-03T02:49:21.640Z,50.4
2017-03-03T02:50:02.324Z,50.49
2017-03-03T02:50:42.967Z,50.49
2017-03-03T02:51:23.598Z,50.3
2017-03-03T02:52:04.284Z,50.3
2017-03-03T02:52:44.910Z,50.4
2017-03-03T02:53:25.531Z,50.49
2017-03-03T02:54:06.277Z,50.4
2017-03-03T02:54:46.966Z,50.3
2017-03-03T02:55:27.679Z,50.4
2017-03-03T02:56:08.338Z,50.3
2017-03-03T02:56:48.988Z,50.4
2017-03-03T02:57:29.731Z,50.3
2017-03-03T02:58:10.363Z,50.2
2017-03-03T02:58:51.009Z,50.1
2017-03-03T02:59:31.642Z,50.2
2017-03-03T03:00:12.265Z,50.4
2017-03-03T03:00:52.937Z,50.3
2017-03-03T03:01:33.571Z,50.3
2017-03-03T03:02:14.193Z,50.3
2017-03-03T03:02:54.874Z,50.49
2017-03-03T03:03:35.584Z,50.4
2017-03-03T03:04:16.297Z,50.3
2017-03-03T03:04:56.863Z,50.4
2017-03-03T03:05:37.537Z,50.2
2017-03-03T03:06:18.173Z,50.49
2017-03-03T03:06:58.800Z,50.59
2017-03-03T03:07:39.480Z,50.4
2017-03-03T03:08:20.150Z,50.3
2017-03-03T03:09:00.786Z,50.59
2017-03-03T03:09:41.464Z,50.2
2017-03-03T03:10:22.157Z,50.3
2017-03-03T03:11:02.820Z,50.49
2017-03-03T03:11:43.476Z,50.49
2017-03-03T03:12:24.110Z,50.2
2017-03-03T03:13:04.739Z,50.49
2017-03-03T03:13:45.480Z,50.2
2017-03-03T03:14:26.167Z,50.2
2017-03-03T03:15:06.808Z,50.3
2017-03-03T03:15:47.423Z,50.4
2017-03-03T03:16:28.091Z,50.3
2017-03-03T03:17:08.780Z,50.3
2017-03-03T03:17:49.345Z,50.4
2017-03-03T03:18:29.986Z,50.3
2017-03-03T03:19:10.605Z,50.49
2017-03-03T03:19:51.246Z,50.49
2017-03-03T03:20:31.957Z,50.4
2017-03-03T03:21:12.637Z,50.3
2017-03-03T03:21:53.218Z,50.4
2017-03-03T03:22:33.894Z,50.49
2017-03-03T03:23:14.541Z,50.3
2017-03-03T03:23:55.178Z,50.4
2017-03-03T03:24:35.803Z,50.2
2017-03-03T03:25:16.431Z,50.4
2017-03-03T03:25:57.056Z,50.3
2017-03-03T03:26:37.756Z,50.3
2017-03-03T03:27:18.385Z,50.4
2017-03-03T03:27:59.034Z,50.49
2017-03-03T03:28:39.670Z,50.49
2017-03-03T03:29:20.317Z,50.4
2017-03-03T03:30:00.951Z,50.4
2017-03-03T03:30:41.584Z,50.3
2017-03-03T03:31:22.242Z,50.4
2017-03-03T03:32:02.880Z,50.4
2017-03-03T03:32:43.507Z,50.3
2017-03-03T03:33:24.168Z,50.1
2017-03-03T03:34:04.806Z,50.3
2017-03-03T03:34:45.518Z,50.3
2017-03-03T03:35:26.160Z,50.3
2017-03-03T03:36:06.777Z,50.2
2017-03-03T03:36:47.509Z,50.1
2017-03-03T03:37:28.224Z,50.49
2017-03-03T03:38:08.853Z,50.3
2017-03-03T03:38:50.143Z,50.59
2017-03-03T03:39:30.772Z,50.01
2017-03-03T03:40:11.447Z,50.4
2017-03-03T03:40:52.098Z,50.49
2017-03-03T03:41:32.730Z,50.68
2017-03-03T03:42:13.445Z,50.2
2017-03-03T03:42:54.066Z,50.4
2017-03-03T03:43:34.729Z,50.4
2017-03-03T03:44:15.345Z,50.49
2017-03-03T03:44:56.071Z,50.4
2017-03-03T03:45:36.722Z,50.49
2017-03-03T03:46:17.353Z,50.49
2017-03-03T03:46:57.972Z,50.3
2017-03-03T03:47:38.594Z,50.49
2017-03-03T03:48:19.231Z,50.2
2017-03-03T03:48:59.885Z,50.3
2017-03-03T03:49:40.580Z,50.3
2017-03-03T03:50:21.225Z,50.3
2017-03-03T03:51:01.955Z,50.49
2017-03-03T03:51:42.646Z,50.49
2017-03-03T03:52:23.277Z,50.49
2017-03-03T03:53:04.002Z,50.3
2017-03-03T03:53:44.742Z,50.49
2017-03-03T03:54:27.524Z,50.2
2017-03-03T03:55:08.162Z,50.49
2017-03-03T03:55:48.874Z,50.49
2017-03-03T03:56:29.511Z,50.2
2017-03-03T03:57:10.140Z,50.4
2017-03-03T03:57:50.827Z,50.4
2017-03-03T03:58:31.516Z,50.4
2017-03-03T03:59:12.148Z,50.4
2017-03-03T03:59:52.772Z,50.01
2017-03-03T04:00:33.475Z,50.4
2017-03-03T04:01:14.131Z,50.49
2017-03-03T04:01:54.791Z,50.01
2017-03-03T04:02:35.504Z,50.4
2017-03-03T04:03:16.146Z,50.59
2017-03-03T04:03:56.770Z,50.4
2017-03-03T04:04:37.459Z,50.4
2017-03-03T04:05:18.092Z,50.2
2017-03-03T04:05:58.720Z,50.3
2017-03-03T04:06:39.388Z,50.49
2017-03-03T04:07:20.104Z,50.3
2017-03-03T04:08:00.729Z,50.49
2017-03-03T04:08:41.421Z,50.3
2017-03-03T04:09:22.054Z,50.4
2017-03-03T04:10:02.681Z,50.3
2017-03-03T04:10:43.349Z,50.3
2017-03-03T04:11:24.074Z,50.2
2017-03-03T04:12:04.772Z,50.2
2017-03-03T04:12:45.428Z,50.4
2017-03-03T04:13:26.065Z,50.49
2017-03-03T04:14:06.692Z,50.2
2017-03-03T04:14:47.318Z,50.3
2017-03-03T04:15:28.082Z,50.49
2017-03-03T04:16:08.815Z,50.3
2017-03-03T04:16:49.450Z,50.2
2017-03-03T04:17:30.072Z,50.4
2017-03-03T04:18:10.809Z,50.4
2017-03-03T04:18:51.441Z,50.4
2017-03-03T04:19:32.088Z,50.2
2017-03-03T04:20:12.743Z,50.49
2017-03-03T04:20:53.381Z,50.2
2017-03-03T04:21:34.018Z,50.01
2017-03-03T04:22:14.686Z,50.59
2017-03-03T04:22:55.305Z,50.49
2017-03-03T04:23:35.938Z,50.68
2017-03-03T04:24:16.612Z,50.59
2017-03-03T04:24:57.285Z,50.3
2017-03-03T04:25:37.914Z,50.68
2017-03-03T04:26:18.662Z,50.68
2017-03-03T04:26:59.306Z,50.68
2017-03-03T04:27:39.927Z,50.97
2017-03-03T04:28:20.618Z,50.78
2017-03-03T04:29:01.267Z,50.68
2017-03-03T04:29:41.890Z,50.68
2017-03-03T04:30:22.547Z,50.68
2017-03-03T04:31:03.176Z,50.68
2017-03-03T04:31:43.812Z,50.87
2017-03-03T04:32:24.473Z,50.68
2017-03-03T04:33:05.100Z,50.78
2017-03-03T04:33:45.732Z,50.87
2017-03-03T04:34:26.478Z,50.87
2017-03-03T04:35:07.147Z,50.68
2017-03-03T04:35:47.893Z,50.78
2017-03-03T04:36:28.555Z,50.78
2017-03-03T04:37:09.264Z,50.87
2017-03-03T04:37:49.970Z,50.78
2017-03-03T04:38:30.607Z,50.78
2017-03-03T04:39:11.235Z,51.07
2017-03-03T04:39:51.874Z,50.59
2017-03-03T04:40:32.505Z,51.07
2017-03-03T04:41:13.180Z,50.87
2017-03-03T04:41:53.882Z,50.87
2017-03-03T04:42:34.600Z,50.78
2017-03-03T04:43:15.261Z,50.4
2017-03-03T04:43:55.936Z,50.59
2017-03-03T04:44:36.573Z,50.3
2017-03-03T04:45:17.204Z,50.59
2017-03-03T04:45:57.863Z,50.78
2017-03-03T04:46:38.614Z,50.68
2017-03-03T04:47:19.267Z,50.68
2017-03-03T04:47:59.967Z,50.78
2017-03-03T04:48:40.647Z,50.68
2017-03-03T04:49:21.321Z,50.78
2017-03-03T04:50:01.965Z,50.78
2017-03-03T04:50:42.636Z,50.59
2017-03-03T04:51:23.329Z,50.1
2017-03-03T04:52:03.971Z,50.4
2017-03-03T04:52:44.597Z,50.68
2017-03-03T04:53:25.270Z,50.59
2017-03-03T04:54:05.895Z,50.59
2017-03-03T04:54:46.625Z,50.68
2017-03-03T04:55:27.298Z,50.78
2017-03-03T04:56:07.930Z,50.78
2017-03-03T04:56:48.554Z,50.59
2017-03-03T04:57:29.177Z,50.59
2017-03-03T04:58:09.807Z,50.59
2017-03-03T04:58:50.524Z,50.59
2017-03-03T04:59:31.179Z,50.87
2017-03-03T05:00:11.811Z,50.78
2017-03-03T05:00:52.435Z,50.87
2017-03-03T05:01:33.117Z,50.87
2017-03-03T05:02:13.746Z,50.87
2017-03-03T05:02:54.376Z,50.87
2017-03-03T05:03:35.009Z,50.78
2017-03-03T05:04:15.645Z,50.87
2017-03-03T05:04:56.299Z,50.87
2017-03-03T05:05:36.973Z,50.68
2017-03-03T05:06:17.616Z,50.68
2017-03-03T05:06:58.237Z,50.87
2017-03-03T05:07:38.902Z,50.78
2017-03-03T05:08:19.613Z,50.78
2017-03-03T05:09:00.164Z,50.87
2017-03-03T05:09:40.900Z,50.78
2017-03-03T05:10:21.576Z,50.78
2017-03-03T05:11:02.216Z,51.07
2017-03-03T05:11:42.920Z,51.17
2017-03-03T05:12:23.559Z,51.26
2017-03-03T05:13:04.187Z,51.07
2017-03-03T05:13:44.826Z,50.87
2017-03-03T05:14:25.571Z,50.87
2017-03-03T05:15:06.210Z,51.07
2017-03-03T05:15:46.838Z,50.97
2017-03-03T05:16:27.533Z,50.97
2017-03-03T05:17:08.176Z,50.87
2017-03-03T05:17:48.799Z,51.07
2017-03-03T05:18:29.483Z,50.97
2017-03-03T05:19:10.193Z,51.26
2017-03-03T05:19:50.742Z,51.26
2017-03-03T05:20:31.481Z,51.26
2017-03-03T05:21:12.168Z,51.45
2017-03-03T05:21:52.815Z,51.17
2017-03-03T05:22:33.467Z,51.45
2017-03-03T05:23:14.163Z,51.26
2017-03-03T05:23:54.801Z,51.07
2017-03-03T05:24:35.424Z,51.17
2017-03-03T05:25:16.111Z,51.45
2017-03-03T05:25:56.741Z,51.84
2017-03-03T05:26:37.374Z,51.55
2017-03-03T05:27:18.002Z,51.84
2017-03-03T05:27:58.640Z,51.35
2017-03-03T05:28:39.278Z,51.07
2017-03-03T05:29:20.030Z,51.84
2017-03-03T05:30:00.654Z,51.07
2017-03-03T05:30:41.293Z,51.55
2017-03-03T05:31:21.968Z,51.35
2017-03-03T05:32:02.591Z,51.84
2017-03-03T05:32:43.222Z,51.64
2017-03-03T05:33:23.902Z,51.64
2017-03-03T05:34:04.523Z,51.64
2017-03-03T05:34:45.149Z,51.74
2017-03-03T05:35:25.818Z,51.45
2017-03-03T05:36:06.450Z,51.35
2017-03-03T05:36:47.074Z,51.45
2017-03-03T05:37:27.775Z,51.45
2017-03-03T05:38:08.413Z,51.64
2017-03-03T05:38:49.046Z,51.64
2017-03-03T05:39:29.707Z,51.64
2017-03-03T05:40:10.401Z,51.55
2017-03-03T05:40:50.986Z,51.55
2017-03-03T05:41:31.674Z,51.45
2017-03-03T05:42:12.297Z,51.45
2017-03-03T05:42:52.944Z,51.74
2017-03-03T05:43:33.612Z,51.35
2017-03-03T05:44:14.227Z,51.35
2017-03-03T05:44:54.851Z,51.64
2017-03-03T05:45:35.516Z,51.64
2017-03-03T05:46:16.157Z,51.74
2017-03-03T05:46:56.799Z,51.45
2017-03-03T05:47:37.456Z,51.64
2017-03-03T05:48:18.173Z,51.45
2017-03-03T05:48:58.818Z,51.55
2017-03-03T05:49:39.491Z,51.74
2017-03-03T05:50:20.232Z,51.45
2017-03-03T05:51:00.880Z,51.55
2017-03-03T05:51:41.507Z,51.64
2017-03-03T05:52:22.135Z,51.45
2017-03-03T05:53:02.756Z,51.45
2017-03-03T05:53:43.440Z,51.55
2017-03-03T05:54:24.063Z,51.55
2017-03-03T05:55:04.697Z,51.45
2017-03-03T05:55:45.358Z,51.64
2017-03-03T05:56:26.073Z,51.64
2017-03-03T05:57:06.702Z,51.55
2017-03-03T05:57:47.321Z,51.55
2017-03-03T05:58:27.997Z,51.55
2017-03-03T05:59:08.623Z,51.35
2017-03-03T05:59:49.252Z,51.55
2017-03-03T06:00:29.938Z,51.74
2017-03-03T06:01:10.607Z,51.55
2017-03-03T06:01:51.229Z,51.74
2017-03-03T06:02:31.880Z,51.64
2017-03-03T06:03:12.525Z,51.64
2017-03-03T06:03:53.169Z,51.84
2017-03-03T06:04:33.798Z,51.64
2017-03-03T06:05:14.451Z,51.55
2017-03-03T06:05:55.095Z,51.64
2017-03-03T06:06:35.740Z,51.74
2017-03-03T06:07:16.469Z,51.64
2017-03-03T06:07:57.112Z,51.55
2017-03-03T06:08:37.856Z,51.74
2017-03-03T06:09:18.485Z,51.74
2017-03-03T06:09:59.113Z,51.74
2017-03-03T06:10:39.838Z,51.64
2017-03-03T06:11:20.507Z,51.84
2017-03-03T06:12:01.138Z,51.93
2017-03-03T06:12:41.767Z,51.84
2017-03-03T06:13:22.425Z,51.84
2017-03-03T06:14:03.135Z,51.84
2017-03-03T06:14:43.678Z,51.93
2017-03-03T06:15:24.355Z,52.12
2017-03-03T06:16:04.990Z,52.03
2017-03-03T06:16:45.624Z,51.64
2017-03-03T06:17:26.283Z,51.74
2017-03-03T06:18:06.974Z,51.64
2017-03-03T06:18:47.612Z,51.84
2017-03-03T06:19:28.251Z,51.84
2017-03-03T06:20:08.937Z,51.93
2017-03-03T06:20:49.594Z,51.93
2017-03-03T06:21:30.233Z,51.84
2017-03-03T06:22:10.885Z,51.64
2017-03-03T06:22:51.533Z,51.84
2017-03-03T06:23:32.212Z,51.93
2017-03-03T06:24:12.967Z,51.84
2017-03-03T06:24:53.593Z,52.03
2017-03-03T06:25:34.235Z,51.64
2017-03-03T06:26:14.873Z,51.64
2017-03-03T06:26:55.500Z,51.64
2017-03-03T06:27:36.138Z,51.64
2017-03-03T06:28:16.766Z,51.64
2017-03-03T06:28:57.413Z,51.64
2017-03-03T06:29:38.092Z,51.64
2017-03-03T06:30:18.715Z,51.55
2017-03-03T06:30:59.352Z,51.64
2017-03-03T06:31:39.987Z,52.03
2017-03-03T06:32:20.609Z,51.64
2017-03-03T06:33:01.248Z,51.74
2017-03-03T06:33:41.929Z,51.93
2017-03-03T06:34:22.561Z,51.64
2017-03-03T06:35:03.199Z,51.64
2017-03-03T06:35:43.821Z,51.64
2017-03-03T06:36:24.457Z,51.55
2017-03-03T06:37:05.080Z,51.93
2017-03-03T06:37:45.733Z,51.93
2017-03-03T06:38:26.386Z,51.93
2017-03-03T06:39:07.033Z,51.93
2017-03-03T06:39:47.691Z,52.03
2017-03-03T06:40:28.331Z,51.93
2017-03-03T06:41:08.958Z,51.93
2017-03-03T06:41:49.687Z,51.74
2017-03-03T06:42:30.381Z,51.93
2017-03-03T06:43:11.027Z,52.03
2017-03-03T06:43:51.675Z,52.03
2017-03-03T06:44:32.298Z,51.74
2017-03-03T06:45:12.963Z,51.84
2017-03-03T06:45:53.616Z,51.55
2017-03-03T06:46:34.327Z,51.64
2017-03-03T06:47:15.009Z,51.64
2017-03-03T06:47:55.636Z,51.64
2017-03-03T06:48:36.278Z,51.74
2017-03-03T06:49:16.934Z,51.84
2017-03-03T06:49:57.572Z,51.74
2017-03-03T06:50:38.296Z,51.84
2017-03-03T06:51:18.923Z,51.93
2017-03-03T06:51:59.551Z,51.93
2017-03-03T06:52:40.198Z,51.93
2017-03-03T06:53:20.907Z,51.84
2017-03-03T06:54:01.624Z,51.64
2017-03-03T06:54:42.193Z,51.74
2017-03-03T06:55:22.880Z,51.64
2017-03-03T06:56:03.545Z,51.45
2017-03-03T06:56:44.177Z,51.64
2017-03-03T06:57:24.846Z,51.64
2017-03-03T06:58:05.474Z,51.64
2017-03-03T06:58:46.105Z,51.64
2017-03-03T06:59:26.775Z,51.74
2017-03-03T07:00:07.444Z,51.64
2017-03-03T07:00:48.064Z,51.64
2017-03-03T07:01:28.765Z,51.64
2017-03-03T07:02:09.440Z,51.74
2017-03-03T07:02:50.076Z,51.74
2017-03-03T07:03:30.759Z,51.74
2017-03-03T07:04:11.477Z,51.64
2017-03-03T07:04:52.102Z,51.64
2017-03-03T07:05:32.803Z,51.84
2017-03-03T07:06:13.517Z,51.74
2017-03-03T07:06:54.168Z,51.45
2017-03-03T07:07:34.803Z,51.35
2017-03-03T07:08:15.452Z,51.45
2017-03-03T07:08:56.102Z,51.55
2017-03-03T07:09:36.726Z,51.45
2017-03-03T07:10:17.434Z,51.35
2017-03-03T07:10:58.167Z,51.55
2017-03-03T07:11:38.795Z,51.64
2017-03-03T07:12:19.428Z,51.64
2017-03-03T07:13:00.055Z,51.64
2017-03-03T07:13:40.686Z,51.64
2017-03-03T07:14:21.377Z,51.64
2017-03-03T07:15:02.009Z,51.55
2017-03-03T07:15:42.654Z,51.64
2017-03-03T07:16:23.289Z,51.74
2017-03-03T07:17:03.970Z,51.64
2017-03-03T07:17:44.597Z,51.35
2017-03-03T07:18:25.227Z,51.35
2017-03-03T07:19:05.865Z,51.64
2017-03-03T07:19:46.511Z,51.64
2017-03-03T07:20:27.182Z,51.74
2017-03-03T07:21:07.908Z,51.74
2017-03-03T07:21:48.563Z,51.74
2017-03-03T07:22:29.223Z,51.45
2017-03-03T07:23:09.874Z,51.07
2017-03-03T07:23:50.550Z,51.17
2017-03-03T07:24:31.200Z,51.07
2017-03-03T07:25:11.851Z,51.07
2017-03-03T07:25:52.487Z,51.07
2017-03-03T07:26:33.110Z,51.07
2017-03-03T07:27:13.782Z,50.87
2017-03-03T07:27:54.410Z,51.07
2017-03-03T07:28:35.044Z,50.78
2017-03-03T07:29:15.680Z,51.07
2017-03-03T07:29:56.361Z,51.07
2017-03-03T07:30:36.977Z,50.97
2017-03-03T07:31:17.682Z,50.87
2017-03-03T07:31:58.313Z,50.59
2017-03-03T07:32:38.933Z,50.68
2017-03-03T07:33:19.602Z,50.68
2017-03-03T07:34:00.236Z,50.87
2017-03-03T07:34:40.877Z,50.87
2017-03-03T07:35:21.637Z,50.68
2017-03-03T07:36:02.345Z,50.68
2017-03-03T07:36:43.020Z,50.78
2017-03-03T07:37:23.645Z,50.87
2017-03-03T07:38:04.298Z,50.68
2017-03-03T07:38:45.000Z,50.66
2017-03-03T07:39:25.656Z,50.68
2017-03-03T07:40:06.341Z,50.95
2017-03-03T07:40:47.040Z,50.85
2017-03-03T07:41:27.673Z,50.85
2017-03-03T07:42:08.312Z,50.66
2017-03-03T07:42:48.958Z,50.85
2017-03-03T07:43:29.586Z,50.68
2017-03-03T07:44:10.257Z,50.18
2017-03-03T07:44:50.891Z,50.08
2017-03-03T07:45:31.527Z,50.46
2017-03-03T07:46:12.207Z,50.1
2017-03-03T07:46:52.834Z,50.4
2017-03-03T07:47:33.462Z,50.3
2017-03-03T07:48:14.141Z,50.01
2017-03-03T07:48:54.755Z,50.49
2017-03-03T07:49:35.399Z,50.4
2017-03-03T07:50:16.065Z,50.3
2017-03-03T07:50:56.710Z,50.1
2017-03-03T07:51:37.348Z,50.68
2017-03-03T07:52:18.008Z,50.2
2017-03-03T07:52:58.710Z,50.3
2017-03-03T07:53:39.421Z,50.3
2017-03-03T07:54:20.066Z,50.3
2017-03-03T07:55:00.734Z,50.3
2017-03-03T07:55:41.372Z,50.46
2017-03-03T07:56:22.010Z,50.37
2017-03-03T07:57:02.723Z,50.49
2017-03-03T07:57:43.355Z,50.37
2017-03-03T07:58:23.986Z,50.27
2017-03-03T07:59:04.686Z,50.27
2017-03-03T07:59:45.313Z,50.46
2017-03-03T08:00:25.941Z,50.27
2017-03-03T08:01:06.612Z,50.46
2017-03-03T08:01:47.254Z,50.56
2017-03-03T08:02:27.886Z,50.46
2017-03-03T08:03:08.586Z,50.37
2017-03-03T08:03:49.305Z,50.66
2017-03-03T08:04:29.949Z,50.37
2017-03-03T08:05:10.597Z,50.68
2017-03-03T08:05:51.252Z,50.08
2017-03-03T08:06:31.960Z,49.79
2017-03-03T08:07:12.620Z,49.82
2017-03-03T08:07:53.246Z,49.82
2017-03-03T08:08:33.885Z,49.79
2017-03-03T08:09:14.517Z,49.99
2017-03-03T08:09:55.210Z,50.01
2017-03-03T08:10:35.843Z,49.79
2017-03-03T08:11:16.477Z,49.89
2017-03-03T08:11:57.147Z,49.79
2017-03-03T08:12:37.780Z,50.01
2017-03-03T08:13:18.404Z,49.6
2017-03-03T08:13:59.101Z,49.72
2017-03-03T08:14:39.737Z,49.53
2017-03-03T08:15:20.361Z,49.6
2017-03-03T08:16:01.063Z,49.72
2017-03-03T08:16:41.760Z,49.51
2017-03-03T08:17:22.386Z,49.41
2017-03-03T08:18:03.014Z,49.69
2017-03-03T08:18:43.741Z,49.89
2017-03-03T08:19:24.385Z,49.69
2017-03-03T08:20:05.033Z,49.51
2017-03-03T08:20:45.730Z,49.41
2017-03-03T08:21:26.364Z,49.6
2017-03-03T08:22:06.990Z,49.6
2017-03-03T08:22:47.637Z,49.69
2017-03-03T08:23:28.296Z,49.69
2017-03-03T08:24:08.942Z,49.41
2017-03-03T08:24:49.613Z,49.12
2017-03-03T08:25:30.252Z,49.31
2017-03-03T08:26:10.905Z,49.22
2017-03-03T08:26:51.597Z,49.51
2017-03-03T08:27:32.221Z,49.6
2017-03-03T08:28:12.848Z,49.43
2017-03-03T08:28:53.511Z,49.69
2017-03-03T08:29:34.152Z,49.51
2017-03-03T08:30:14.771Z,49.69
2017-03-03T08:30:55.440Z,49.51
2017-03-03T08:31:36.123Z,49.69
2017-03-03T08:32:16.752Z,49.89
2017-03-03T08:32:57.495Z,49.31
2017-03-03T08:33:38.177Z,49.89
2017-03-03T08:34:18.826Z,49.22
2017-03-03T08:34:59.458Z,49.22
2017-03-03T08:35:40.122Z,49.41
2017-03-03T08:36:20.749Z,49.41
2017-03-03T08:37:01.366Z,49.12
2017-03-03T08:37:42.057Z,49.6
2017-03-03T08:38:22.732Z,49.22
2017-03-03T08:39:03.360Z,49.31
2017-03-03T08:39:44.056Z,49.51
2017-03-03T08:40:24.681Z,49.41
2017-03-03T08:41:05.319Z,49.31
2017-03-03T08:41:46.020Z,49.31
2017-03-03T08:42:26.645Z,49.31
2017-03-03T08:43:07.274Z,49.41
2017-03-03T08:43:47.936Z,49.02
2017-03-03T08:44:28.584Z,49.02
2017-03-03T08:45:09.219Z,49.02
2017-03-03T08:45:49.913Z,49.12
2017-03-03T08:46:30.634Z,49.31
2017-03-03T08:47:11.261Z,49.31